CHT weather

Chillicothe Municipal Airport
Chillicothe, Missouri, United States

Public forecast

Using degrees Fahrenheit for public forecast. Weather courtesy of forecast.io.

METAR (pilot weather report)

Closest report is Marshall Memorial Municipal Airport, 43.4 nm (80.4 km) SSE. Retrieved 2019/08/22 04:35 UTC (8 minutes ago):

KMHL 220435Z AUTO 29006KT 10SM -RA BKN050 BKN065 OVC110 23/22 A3002 RMK AO2 TSNO

TAF (pilot weather forecast)

Closest forecast is Whiteman Air Force Base, 63.2 nm (117.1 km) S. Retrieved 2019/08/22 03:32 UTC (1 hour ago):

TAF KSZL 220300Z 2203/2309 03010KT 9999 BKN100 QNH2996INS TEMPO 2206/2209 32020G45KT 3200 -TSRA SCT010 OVC030CB BECMG 2208/2209 09006KT 3200 BR BKN010 OVC050 QNH2992INS BECMG 2211/2212 08006KT 0800 FG OVC008 QNH2992INS BECMG 2214/2215 04006KT 4800 BR SCT008 BKN200 QNH2993INS BECMG 2218/2219 04009KT 9999 NSW SCT200 QNH2989INS TX30/2221Z TN24/2303Z